sensor_id;sensor_type;location;lat;lon;timestamp;pressure;altitude;pressure_sealevel;temperature;humidity
21803;BME280;18591;47.080;22.214;2023-01-06T00:01:14;99694.53;;;7.99;63.12
21803;BME280;18591;47.080;22.214;2023-01-06T00:06:10;99700.31;;;7.82;63.77
21803;BME280;18591;47.080;22.214;2023-01-06T00:08:12;99699.25;;;7.89;63.47
21803;BME280;18591;47.080;22.214;2023-01-06T00:10:14;99703.75;;;7.87;63.38
21803;BME280;18591;47.080;22.214;2023-01-06T00:12:17;99715.25;;;7.91;63.10
21803;BME280;18591;47.080;22.214;2023-01-06T00:22:01;99739.81;;;7.71;63.42
21803;BME280;18591;47.080;22.214;2023-01-06T00:24:03;99743.28;;;7.74;63.41
21803;BME280;18591;47.080;22.214;2023-01-06T00:26:07;99745.38;;;7.61;63.49
21803;BME280;18591;47.080;22.214;2023-01-06T00:28:09;99751.59;;;7.62;63.83
21803;BME280;18591;47.080;22.214;2023-01-06T00:30:11;99749.78;;;7.62;64.32
21803;BME280;18591;47.080;22.214;2023-01-06T00:32:14;99759.50;;;7.68;63.94
21803;BME280;18591;47.080;22.214;2023-01-06T00:34:16;99771.97;;;7.68;64.16
21803;BME280;18591;47.080;22.214;2023-01-06T00:36:18;99770.38;;;7.59;64.40
21803;BME280;18591;47.080;22.214;2023-01-06T00:38:22;99772.28;;;7.54;64.58
21803;BME280;18591;47.080;22.214;2023-01-06T00:40:24;99776.66;;;7.58;64.39
21803;BME280;18591;47.080;22.214;2023-01-06T00:42:26;99778.34;;;7.62;64.34
21803;BME280;18591;47.080;22.214;2023-01-06T00:44:33;99781.94;;;7.61;64.69
21803;BME280;18591;47.080;22.214;2023-01-06T00:46:37;99779.25;;;7.61;64.50
21803;BME280;18591;47.080;22.214;2023-01-06T00:48:38;99784.47;;;7.67;64.24
21803;BME280;18591;47.080;22.214;2023-01-06T00:50:50;99781.88;;;7.62;64.44
21803;BME280;18591;47.080;22.214;2023-01-06T00:53:00;99787.22;;;7.62;64.10
21803;BME280;18591;47.080;22.214;2023-01-06T00:55:04;99785.47;;;7.61;64.30
21803;BME280;18591;47.080;22.214;2023-01-06T00:57:09;99792.53;;;7.66;64.31
21803;BME280;18591;47.080;22.214;2023-01-06T00:59:13;99791.75;;;7.60;63.93
21803;BME280;18591;47.080;22.214;2023-01-06T01:01:15;99795.31;;;7.59;63.71
21803;BME280;18591;47.080;22.214;2023-01-06T01:03:18;99791.81;;;7.57;63.74
21803;BME280;18591;47.080;22.214;2023-01-06T01:05:20;99797.09;;;7.60;64.21
21803;BME280;18591;47.080;22.214;2023-01-06T01:07:22;99804.50;;;7.48;63.91
21803;BME280;18591;47.080;22.214;2023-01-06T01:09:29;99801.63;;;7.57;63.83
21803;BME280;18591;47.080;22.214;2023-01-06T01:11:31;99803.31;;;7.61;63.93
21803;BME280;18591;47.080;22.214;2023-01-06T01:13:52;99808.84;;;7.52;64.16
21803;BME280;18591;47.080;22.214;2023-01-06T01:15:54;99817.72;;;7.55;64.22
21803;BME280;18591;47.080;22.214;2023-01-06T01:17:56;99825.75;;;7.55;63.69
21803;BME280;18591;47.080;22.214;2023-01-06T01:19:58;99816.81;;;7.55;64.07
21803;BME280;18591;47.080;22.214;2023-01-06T01:22:02;99818.81;;;7.45;64.18
21803;BME280;18591;47.080;22.214;2023-01-06T01:24:05;99822.28;;;7.50;63.57
21803;BME280;18591;47.080;22.214;2023-01-06T01:26:08;99826.88;;;7.44;63.84
21803;BME280;18591;47.080;22.214;2023-01-06T01:28:09;99825.00;;;7.47;63.73
21803;BME280;18591;47.080;22.214;2023-01-06T01:30:12;99839.38;;;7.41;64.06
21803;BME280;18591;47.080;22.214;2023-01-06T01:32:14;99840.28;;;7.40;63.93
21803;BME280;18591;47.080;22.214;2023-01-06T01:34:17;99841.31;;;7.35;63.97
21803;BME280;18591;47.080;22.214;2023-01-06T01:36:19;99843.84;;;7.41;63.68
21803;BME280;18591;47.080;22.214;2023-01-06T01:38:25;99849.25;;;7.38;63.94
21803;BME280;18591;47.080;22.214;2023-01-06T01:40:29;99849.16;;;7.43;64.16
21803;BME280;18591;47.080;22.214;2023-01-06T01:42:31;99845.66;;;7.39;63.75
21803;BME280;18591;47.080;22.214;2023-01-06T01:46:57;99841.19;;;7.39;64.08
21803;BME280;18591;47.080;22.214;2023-01-06T01:49:03;99840.31;;;7.39;63.88
21803;BME280;18591;47.080;22.214;2023-01-06T01:51:10;99851.09;;;7.34;64.33
21803;BME280;18591;47.080;22.214;2023-01-06T01:53:26;99846.66;;;7.35;64.28
21803;BME280;18591;47.080;22.214;2023-01-06T01:55:30;99849.28;;;7.36;63.67
21803;BME280;18591;47.080;22.214;2023-01-06T01:57:47;99843.44;;;7.17;63.63
21803;BME280;18591;47.080;22.214;2023-01-06T01:59:51;99838.78;;;7.27;63.80
21803;BME280;18591;47.080;22.214;2023-01-06T02:01:54;99844.16;;;7.26;64.25
21803;BME280;18591;47.080;22.214;2023-01-06T02:03:57;99844.09;;;7.29;63.84
21803;BME280;18591;47.080;22.214;2023-01-06T02:06:04;99846.81;;;7.27;64.03
21803;BME280;18591;47.080;22.214;2023-01-06T02:08:30;99844.22;;;7.23;64.07
21803;BME280;18591;47.080;22.214;2023-01-06T02:10:34;99842.34;;;7.28;63.86
21803;BME280;18591;47.080;22.214;2023-01-06T02:12:38;99847.69;;;7.28;63.59
21803;BME280;18591;47.080;22.214;2023-01-06T02:14:41;99849.63;;;7.19;63.58
21803;BME280;18591;47.080;22.214;2023-01-06T02:19:11;99855.91;;;7.17;63.52
21803;BME280;18591;47.080;22.214;2023-01-06T02:22:05;99857.59;;;7.21;63.35
21803;BME280;18591;47.080;22.214;2023-01-06T02:33:21;99862.19;;;7.14;63.60
21803;BME280;18591;47.080;22.214;2023-01-06T02:45:12;99874.13;;;6.95;62.90
21803;BME280;18591;47.080;22.214;2023-01-06T02:47:29;99876.78;;;6.95;63.63
21803;BME280;18591;47.080;22.214;2023-01-06T02:49:41;99875.03;;;6.94;63.89
21803;BME280;18591;47.080;22.214;2023-01-06T02:52:08;99879.59;;;6.89;63.63
21803;BME280;18591;47.080;22.214;2023-01-06T02:54:38;99876.81;;;6.93;63.58
21803;BME280;18591;47.080;22.214;2023-01-06T02:56:48;99871.44;;;6.95;63.67
21803;BME280;18591;47.080;22.214;2023-01-06T02:58:59;99870.66;;;6.88;63.61
21803;BME280;18591;47.080;22.214;2023-01-06T03:01:19;99873.34;;;6.88;64.00
21803;BME280;18591;47.080;22.214;2023-01-06T03:03:28;99882.06;;;6.98;63.76
21803;BME280;18591;47.080;22.214;2023-01-06T03:05:33;99884.94;;;6.89;63.90
21803;BME280;18591;47.080;22.214;2023-01-06T03:07:38;99885.81;;;6.88;63.62
21803;BME280;18591;47.080;22.214;2023-01-06T03:09:42;99880.53;;;6.85;63.19
21803;BME280;18591;47.080;22.214;2023-01-06T03:11:48;99889.41;;;6.87;63.44
21803;BME280;18591;47.080;22.214;2023-01-06T03:14:00;99895.69;;;6.83;63.61
21803;BME280;18591;47.080;22.214;2023-01-06T03:16:05;99893.81;;;6.88;63.79
21803;BME280;18591;47.080;22.214;2023-01-06T03:18:07;99891.13;;;6.89;63.53
21803;BME280;18591;47.080;22.214;2023-01-06T03:20:11;99899.03;;;6.95;63.44
21803;BME280;18591;47.080;22.214;2023-01-06T03:22:15;99894.69;;;6.90;63.58
21803;BME280;18591;47.080;22.214;2023-01-06T03:24:18;99886.72;;;6.87;63.27
21803;BME280;18591;47.080;22.214;2023-01-06T03:26:26;99892.06;;;6.87;63.27
21803;BME280;18591;47.080;22.214;2023-01-06T03:28:29;99890.28;;;6.86;63.52
21803;BME280;18591;47.080;22.214;2023-01-06T03:30:48;99889.41;;;6.85;63.32
21803;BME280;18591;47.080;22.214;2023-01-06T03:33:08;99882.38;;;6.81;63.37
21803;BME280;18591;47.080;22.214;2023-01-06T03:50:38;99927.09;;;6.68;63.38
21803;BME280;18591;47.080;22.214;2023-01-06T03:52:46;99924.34;;;6.73;63.17
21803;BME280;18591;47.080;22.214;2023-01-06T03:54:58;99923.38;;;6.79;63.23
21803;BME280;18591;47.080;22.214;2023-01-06T03:57:13;99919.94;;;6.70;63.39
21803;BME280;18591;47.080;22.214;2023-01-06T03:59:23;99931.47;;;6.72;62.89
21803;BME280;18591;47.080;22.214;2023-01-06T04:01:28;99932.34;;;6.73;63.13
21803;BME280;18591;47.080;22.214;2023-01-06T04:03:31;99927.91;;;6.73;63.41
21803;BME280;18591;47.080;22.214;2023-01-06T04:05:34;99927.91;;;6.73;63.77
21803;BME280;18591;47.080;22.214;2023-01-06T04:07:39;99927.06;;;6.70;64.14
21803;BME280;18591;47.080;22.214;2023-01-06T04:09:42;99927.84;;;6.76;64.78
21803;BME280;18591;47.080;22.214;2023-01-06T04:11:44;99932.22;;;6.81;64.54
21803;BME280;18591;47.080;22.214;2023-01-06T04:14:09;99936.63;;;6.83;63.74
21803;BME280;18591;47.080;22.214;2023-01-06T04:16:11;99939.53;;;6.69;63.89
21803;BME280;18591;47.080;22.214;2023-01-06T04:18:14;99934.94;;;6.78;63.74
21803;BME280;18591;47.080;22.214;2023-01-06T04:20:20;99934.13;;;6.74;63.47
21803;BME280;18591;47.080;22.214;2023-01-06T04:22:26;99936.69;;;6.80;63.28
21803;BME280;18591;47.080;22.214;2023-01-06T04:24:29;99941.97;;;6.83;63.04
21803;BME280;18591;47.080;22.214;2023-01-06T04:26:31;99953.56;;;6.84;63.28
21803;BME280;18591;47.080;22.214;2023-01-06T04:28:35;99951.84;;;6.78;63.04
21803;BME280;18591;47.080;22.214;2023-01-06T04:30:37;99958.97;;;6.78;62.83
21803;BME280;18591;47.080;22.214;2023-01-06T04:32:39;99962.69;;;6.67;63.40
21803;BME280;18591;47.080;22.214;2023-01-06T04:34:50;99959.09;;;6.71;62.71
21803;BME280;18591;47.080;22.214;2023-01-06T04:36:52;99973.50;;;6.61;62.68
21803;BME280;18591;47.080;22.214;2023-01-06T04:38:55;99964.56;;;6.64;62.87
21803;BME280;18591;47.080;22.214;2023-01-06T04:40:57;99975.19;;;6.65;62.97
21803;BME280;18591;47.080;22.214;2023-01-06T04:42:59;99979.69;;;6.62;62.78
21803;BME280;18591;47.080;22.214;2023-01-06T04:45:16;99979.66;;;6.66;62.55
21803;BME280;18591;47.080;22.214;2023-01-06T04:47:18;99996.53;;;6.67;62.49
21803;BME280;18591;47.080;22.214;2023-01-06T04:49:21;99993.03;;;6.63;62.36
21803;BME280;18591;47.080;22.214;2023-01-06T04:51:23;100008.13;;;6.66;62.60
21803;BME280;18591;47.080;22.214;2023-01-06T04:53:25;100010.88;;;6.60;62.74
21803;BME280;18591;47.080;22.214;2023-01-06T04:55:27;100019.00;;;6.52;63.44
21803;BME280;18591;47.080;22.214;2023-01-06T04:57:29;100013.59;;;6.57;63.38
21803;BME280;18591;47.080;22.214;2023-01-06T04:59:31;100013.66;;;6.52;62.98
21803;BME280;18591;47.080;22.214;2023-01-06T05:01:34;100022.53;;;6.56;62.95
21803;BME280;18591;47.080;22.214;2023-01-06T05:03:38;100025.19;;;6.56;63.10
21803;BME280;18591;47.080;22.214;2023-01-06T05:05:40;100023.50;;;6.47;62.92
21803;BME280;18591;47.080;22.214;2023-01-06T05:07:47;100024.53;;;6.38;63.29
21803;BME280;18591;47.080;22.214;2023-01-06T05:09:49;100021.69;;;6.50;63.10
21803;BME280;18591;47.080;22.214;2023-01-06T05:11:51;100028.03;;;6.43;63.21
21803;BME280;18591;47.080;22.214;2023-01-06T05:13:53;100027.09;;;6.44;63.22
21803;BME280;18591;47.080;22.214;2023-01-06T05:15:55;100035.06;;;6.49;63.15
21803;BME280;18591;47.080;22.214;2023-01-06T05:17:57;100032.44;;;6.47;63.34
21803;BME280;18591;47.080;22.214;2023-01-06T05:19:59;100036.84;;;6.50;63.87
21803;BME280;18591;47.080;22.214;2023-01-06T05:22:01;100040.41;;;6.49;63.48
21803;BME280;18591;47.080;22.214;2023-01-06T05:24:04;100050.25;;;6.44;62.96
21803;BME280;18591;47.080;22.214;2023-01-06T05:26:06;100042.28;;;6.41;63.41
21803;BME280;18591;47.080;22.214;2023-01-06T05:28:09;100045.00;;;6.36;63.93
21803;BME280;18591;47.080;22.214;2023-01-06T05:30:12;100047.69;;;6.38;64.01
21803;BME280;18591;47.080;22.214;2023-01-06T05:32:14;100056.59;;;6.35;64.95
21803;BME280;18591;47.080;22.214;2023-01-06T05:34:16;100051.25;;;6.35;65.06
21803;BME280;18591;47.080;22.214;2023-01-06T05:36:18;100054.84;;;6.32;65.30
21803;BME280;18591;47.080;22.214;2023-01-06T05:38:24;100061.94;;;6.35;65.37
21803;BME280;18591;47.080;22.214;2023-01-06T05:40:26;100053.94;;;6.35;65.63
21803;BME280;18591;47.080;22.214;2023-01-06T05:42:29;100068.97;;;6.41;65.88
21803;BME280;18591;47.080;22.214;2023-01-06T05:44:31;100070.63;;;6.51;65.31
21803;BME280;18591;47.080;22.214;2023-01-06T05:46:33;100078.59;;;6.56;65.38
21803;BME280;18591;47.080;22.214;2023-01-06T05:48:36;100086.50;;;6.63;65.17
21803;BME280;18591;47.080;22.214;2023-01-06T05:50:38;100076.63;;;6.67;65.03
21803;BME280;18591;47.080;22.214;2023-01-06T05:52:41;100089.06;;;6.71;64.68
21803;BME280;18591;47.080;22.214;2023-01-06T05:54:43;100092.75;;;6.59;65.11
21803;BME280;18591;47.080;22.214;2023-01-06T05:56:45;100103.44;;;6.59;64.91
21803;BME280;18591;47.080;22.214;2023-01-06T05:58:50;100098.00;;;6.68;65.18
21803;BME280;18591;47.080;22.214;2023-01-06T06:00:52;100093.72;;;6.55;65.90
21803;BME280;18591;47.080;22.214;2023-01-06T06:02:55;100102.50;;;6.62;65.78
21803;BME280;18591;47.080;22.214;2023-01-06T06:04:57;100098.06;;;6.62;66.16
21803;BME280;18591;47.080;22.214;2023-01-06T06:06:59;100097.06;;;6.69;65.55
21803;BME280;18591;47.080;22.214;2023-01-06T06:09:03;100098.03;;;6.64;66.14
21803;BME280;18591;47.080;22.214;2023-01-06T06:11:08;100094.41;;;6.69;66.20
21803;BME280;18591;47.080;22.214;2023-01-06T06:13:10;100100.56;;;6.74;66.19
21803;BME280;18591;47.080;22.214;2023-01-06T06:15:12;100103.13;;;6.81;65.74
21803;BME280;18591;47.080;22.214;2023-01-06T06:17:15;100104.81;;;6.89;66.34
21803;BME280;18591;47.080;22.214;2023-01-06T06:19:17;100107.38;;;6.95;66.35
21803;BME280;18591;47.080;22.214;2023-01-06T06:21:21;100114.53;;;6.95;67.15
21803;BME280;18591;47.080;22.214;2023-01-06T06:23:24;100101.16;;;6.96;66.32
21803;BME280;18591;47.080;22.214;2023-01-06T06:25:26;100107.44;;;6.91;66.76
21803;BME280;18591;47.080;22.214;2023-01-06T06:27:30;100112.78;;;6.91;67.27
21803;BME280;18591;47.080;22.214;2023-01-06T06:29:32;100105.72;;;6.88;67.51
21803;BME280;18591;47.080;22.214;2023-01-06T06:31:35;100111.91;;;6.92;66.94
21803;BME280;18591;47.080;22.214;2023-01-06T06:33:38;100107.44;;;6.92;66.78
21803;BME280;18591;47.080;22.214;2023-01-06T06:35:41;100113.66;;;6.93;67.58
21803;BME280;18591;47.080;22.214;2023-01-06T06:37:43;100126.13;;;6.94;67.30
21803;BME280;18591;47.080;22.214;2023-01-06T06:39:45;100130.59;;;6.92;67.61
21803;BME280;18591;47.080;22.214;2023-01-06T06:41:49;100137.59;;;7.01;67.19
21803;BME280;18591;47.080;22.214;2023-01-06T06:43:52;100135.81;;;7.01;67.32
21803;BME280;18591;47.080;22.214;2023-01-06T06:45:54;100134.88;;;7.04;67.32
21803;BME280;18591;47.080;22.214;2023-01-06T06:47:56;100142.72;;;7.17;66.74
21803;BME280;18591;47.080;22.214;2023-01-06T06:49:58;100147.19;;;7.14;67.34
21803;BME280;18591;47.080;22.214;2023-01-06T06:52:00;100144.50;;;7.17;67.69
21803;BME280;18591;47.080;22.214;2023-01-06T06:54:03;100151.66;;;7.15;67.96
21803;BME280;18591;47.080;22.214;2023-01-06T06:56:06;100149.78;;;7.20;67.97
21803;BME280;18591;47.080;22.214;2023-01-06T06:58:08;100158.63;;;7.25;67.62
21803;BME280;18591;47.080;22.214;2023-01-06T07:00:11;100159.50;;;7.26;67.57
21803;BME280;18591;47.080;22.214;2023-01-06T07:02:14;100160.31;;;7.32;67.16
21803;BME280;18591;47.080;22.214;2023-01-06T07:04:16;100174.72;;;7.22;68.02
21803;BME280;18591;47.080;22.214;2023-01-06T07:06:21;100177.31;;;7.27;67.70
21803;BME280;18591;47.080;22.214;2023-01-06T07:08:25;100188.03;;;7.25;67.70
21803;BME280;18591;47.080;22.214;2023-01-06T07:10:31;100193.28;;;7.33;67.66
21803;BME280;18591;47.080;22.214;2023-01-06T07:12:34;100195.81;;;7.40;67.34
21803;BME280;18591;47.080;22.214;2023-01-06T07:14:36;100205.53;;;7.46;66.95
21803;BME280;18591;47.080;22.214;2023-01-06T07:16:38;100205.50;;;7.49;67.55
21803;BME280;18591;47.080;22.214;2023-01-06T07:18:40;100203.69;;;7.53;67.39
21803;BME280;18591;47.080;22.214;2023-01-06T07:20:46;100209.09;;;7.48;67.34
21803;BME280;18591;47.080;22.214;2023-01-06T07:22:49;100207.22;;;7.53;67.14
21803;BME280;18591;47.080;22.214;2023-01-06T07:24:51;100216.06;;;7.57;67.57
21803;BME280;18591;47.080;22.214;2023-01-06T07:26:54;100216.88;;;7.62;67.42
21803;BME280;18591;47.080;22.214;2023-01-06T07:28:56;100222.22;;;7.63;67.79
21803;BME280;18591;47.080;22.214;2023-01-06T07:30:58;100216.06;;;7.58;67.70
21803;BME280;18591;47.080;22.214;2023-01-06T07:33:01;100225.72;;;7.67;67.28
21803;BME280;18591;47.080;22.214;2023-01-06T07:35:06;100218.63;;;7.66;68.01
21803;BME280;18591;47.080;22.214;2023-01-06T07:37:08;100215.03;;;7.67;67.85
21803;BME280;18591;47.080;22.214;2023-01-06T07:39:11;100223.09;;;7.66;68.36
21803;BME280;18591;47.080;22.214;2023-01-06T07:41:14;100214.94;;;7.73;68.16
21803;BME280;18591;47.080;22.214;2023-01-06T07:43:18;100225.47;;;7.82;68.40
21803;BME280;18591;47.080;22.214;2023-01-06T07:45:20;100227.16;;;7.88;68.17
21803;BME280;18591;47.080;22.214;2023-01-06T07:47:23;100226.22;;;7.91;67.91
21803;BME280;18591;47.080;22.214;2023-01-06T07:49:25;100232.63;;;7.83;68.29
21803;BME280;18591;47.080;22.214;2023-01-06T07:51:27;100236.06;;;7.90;68.08
21803;BME280;18591;47.080;22.214;2023-01-06T07:53:29;100240.47;;;7.93;68.28
21803;BME280;18591;47.080;22.214;2023-01-06T07:55:32;100240.53;;;7.88;68.77
21803;BME280;18591;47.080;22.214;2023-01-06T07:57:34;100240.38;;;7.99;68.71
21803;BME280;18591;47.080;22.214;2023-01-06T07:59:36;100244.69;;;8.07;68.55
21803;BME280;18591;47.080;22.214;2023-01-06T08:01:38;100249.06;;;8.12;68.18
21803;BME280;18591;47.080;22.214;2023-01-06T08:03:44;100250.13;;;8.01;68.57
21803;BME280;18591;47.080;22.214;2023-01-06T08:05:46;100252.81;;;8.01;68.80
21803;BME280;18591;47.080;22.214;2023-01-06T08:07:48;100255.34;;;8.11;69.14
21803;BME280;18591;47.080;22.214;2023-01-06T08:09:51;100254.47;;;8.08;68.72
21803;BME280;18591;47.080;22.214;2023-01-06T08:11:53;100256.28;;;8.08;68.88
21803;BME280;18591;47.080;22.214;2023-01-06T08:13:56;100254.44;;;8.12;68.91
21803;BME280;18591;47.080;22.214;2023-01-06T08:16:01;100261.44;;;8.20;68.77
21803;BME280;18591;47.080;22.214;2023-01-06T08:18:05;100272.09;;;8.23;69.02
21803;BME280;18591;47.080;22.214;2023-01-06T08:20:08;100275.63;;;8.24;69.13
21803;BME280;18591;47.080;22.214;2023-01-06T08:22:12;100277.25;;;8.34;69.23
21803;BME280;18591;47.080;22.214;2023-01-06T08:24:14;100273.69;;;8.35;69.17
21803;BME280;18591;47.080;22.214;2023-01-06T08:26:17;100271.94;;;8.33;69.27
21803;BME280;18591;47.080;22.214;2023-01-06T08:28:19;100273.81;;;8.27;69.55
21803;BME280;18591;47.080;22.214;2023-01-06T08:30:22;100273.06;;;8.18;70.94
21803;BME280;18591;47.080;22.214;2023-01-06T08:32:24;100275.44;;;8.35;70.15
21803;BME280;18591;47.080;22.214;2023-01-06T08:34:26;100272.59;;;8.47;69.38
21803;BME280;18591;47.080;22.214;2023-01-06T08:36:31;100274.25;;;8.54;68.92
21803;BME280;18591;47.080;22.214;2023-01-06T08:38:34;100270.72;;;8.54;68.67
21803;BME280;18591;47.080;22.214;2023-01-06T08:40:39;100276.88;;;8.59;68.96
21803;BME280;18591;47.080;22.214;2023-01-06T08:42:44;100265.16;;;8.63;68.88
21803;BME280;18591;47.080;22.214;2023-01-06T08:44:47;100272.25;;;8.67;68.82
21803;BME280;18591;47.080;22.214;2023-01-06T08:46:49;100273.09;;;8.69;68.84
21803;BME280;18591;47.080;22.214;2023-01-06T08:48:51;100283.91;;;8.63;69.37
21803;BME280;18591;47.080;22.214;2023-01-06T08:50:53;100295.50;;;8.65;68.80
21803;BME280;18591;47.080;22.214;2023-01-06T08:52:57;100288.19;;;8.73;68.25
21803;BME280;18591;47.080;22.214;2023-01-06T08:55:00;100297.13;;;8.74;67.96
21803;BME280;18591;47.080;22.214;2023-01-06T08:57:02;100295.34;;;8.72;68.32
21803;BME280;18591;47.080;22.214;2023-01-06T08:59:05;100300.75;;;8.71;68.56
21803;BME280;18591;47.080;22.214;2023-01-06T09:01:20;100299.03;;;8.65;69.39
21803;BME280;18591;47.080;22.214;2023-01-06T09:03:23;100296.94;;;8.84;69.27
21803;BME280;18591;47.080;22.214;2023-01-06T09:05:25;100300.53;;;8.82;68.53
21803;BME280;18591;47.080;22.214;2023-01-06T09:07:34;100291.59;;;8.83;68.63
21803;BME280;18591;47.080;22.214;2023-01-06T09:09:36;100299.53;;;8.89;68.91
21803;BME280;18591;47.080;22.214;2023-01-06T09:11:42;100301.41;;;8.84;68.63
21803;BME280;18591;47.080;22.214;2023-01-06T09:13:49;100300.41;;;8.89;69.03
21803;BME280;18591;47.080;22.214;2023-01-06T09:15:56;100289.59;;;8.94;68.78
21803;BME280;18591;47.080;22.214;2023-01-06T09:17:58;100292.28;;;8.94;68.80
21803;BME280;18591;47.080;22.214;2023-01-06T09:20:00;100288.59;;;8.98;68.51
21803;BME280;18591;47.080;22.214;2023-01-06T09:22:06;100287.59;;;9.05;67.14
21803;BME280;18591;47.080;22.214;2023-01-06T09:24:12;100293.75;;;9.09;65.95
21803;BME280;18591;47.080;22.214;2023-01-06T09:26:16;100295.31;;;9.19;65.29
21803;BME280;18591;47.080;22.214;2023-01-06T09:28:19;100292.66;;;9.19;65.30
21803;BME280;18591;47.080;22.214;2023-01-06T09:30:21;100283.56;;;9.26;63.21
21803;BME280;18591;47.080;22.214;2023-01-06T09:32:26;100298.72;;;9.29;62.12
21803;BME280;18591;47.080;22.214;2023-01-06T09:34:28;100303.94;;;9.35;62.77
21803;BME280;18591;47.080;22.214;2023-01-06T09:36:31;100294.03;;;9.38;62.97
21803;BME280;18591;47.080;22.214;2023-01-06T09:38:35;100291.28;;;9.42;63.46
21803;BME280;18591;47.080;22.214;2023-01-06T09:41:41;100290.38;;;9.43;61.39
21803;BME280;18591;47.080;22.214;2023-01-06T09:45:55;100291.13;;;9.49;58.96
21803;BME280;18591;47.080;22.214;2023-01-06T09:47:59;100295.53;;;9.52;60.39
21803;BME280;18591;47.080;22.214;2023-01-06T09:50:12;100290.16;;;9.53;58.29
21803;BME280;18591;47.080;22.214;2023-01-06T09:55:02;100279.19;;;9.63;57.73
21803;BME280;18591;47.080;22.214;2023-01-06T09:57:14;100281.00;;;9.62;55.85
21803;BME280;18591;47.080;22.214;2023-01-06T09:59:26;100275.47;;;9.70;55.82
21803;BME280;18591;47.080;22.214;2023-01-06T10:01:35;100272.59;;;9.77;57.16
21803;BME280;18591;47.080;22.214;2023-01-06T10:03:39;100269.84;;;9.80;57.20
21803;BME280;18591;47.080;22.214;2023-01-06T10:08:18;100267.03;;;9.87;55.55
21803;BME280;18591;47.080;22.214;2023-01-06T10:10:49;100262.56;;;9.87;54.72
21803;BME280;18591;47.080;22.214;2023-01-06T10:15:13;100265.00;;;9.96;56.14
21803;BME280;18591;47.080;22.214;2023-01-06T10:17:41;100257.78;;;10.00;53.92
21803;BME280;18591;47.080;22.214;2023-01-06T10:22:27;100251.44;;;10.02;52.56
21803;BME280;18591;47.080;22.214;2023-01-06T10:24:41;100253.97;;;10.09;54.37
21803;BME280;18591;47.080;22.214;2023-01-06T10:26:50;100252.34;;;10.01;54.01
21803;BME280;18591;47.080;22.214;2023-01-06T10:29:17;100251.38;;;10.04;53.01
21803;BME280;18591;47.080;22.214;2023-01-06T10:31:22;100255.59;;;10.14;54.81
21803;BME280;18591;47.080;22.214;2023-01-06T10:34:02;100248.31;;;10.19;54.59
21803;BME280;18591;47.080;22.214;2023-01-06T10:35:58;100242.69;;;10.32;54.73
21803;BME280;18591;47.080;22.214;2023-01-06T10:38:05;100248.88;;;10.35;53.74
21803;BME280;18591;47.080;22.214;2023-01-06T10:40:19;100256.19;;;10.29;50.76
21803;BME280;18591;47.080;22.214;2023-01-06T10:42:28;100244.66;;;10.23;50.27
21803;BME280;18591;47.080;22.214;2023-01-06T10:44:52;100258.78;;;10.32;52.69
21803;BME280;18591;47.080;22.214;2023-01-06T10:46:55;100240.91;;;10.31;50.84
21803;BME280;18591;47.080;22.214;2023-01-06T10:48:57;100241.72;;;10.34;51.89
21803;BME280;18591;47.080;22.214;2023-01-06T10:51:51;100240.72;;;10.38;51.21
21803;BME280;18591;47.080;22.214;2023-01-06T10:53:29;100233.44;;;10.43;51.06
21803;BME280;18591;47.080;22.214;2023-01-06T10:57:39;100227.03;;;10.48;50.52
21803;BME280;18591;47.080;22.214;2023-01-06T11:02:21;100212.47;;;10.56;48.27
21803;BME280;18591;47.080;22.214;2023-01-06T11:04:25;100214.91;;;10.65;50.79
21803;BME280;18591;47.080;22.214;2023-01-06T11:06:29;100222.81;;;10.72;49.81
21803;BME280;18591;47.080;22.214;2023-01-06T11:08:33;100221.00;;;10.72;50.02
21803;BME280;18591;47.080;22.214;2023-01-06T11:12:44;100213.78;;;10.74;49.57
21803;BME280;18591;47.080;22.214;2023-01-06T11:14:57;100218.13;;;10.78;47.35
21803;BME280;18591;47.080;22.214;2023-01-06T11:17:12;100225.28;;;10.79;47.58
21803;BME280;18591;47.080;22.214;2023-01-06T11:19:30;100219.06;;;10.77;47.42
21803;BME280;18591;47.080;22.214;2023-01-06T11:21:43;100215.41;;;10.80;47.59
21803;BME280;18591;47.080;22.214;2023-01-06T11:23:48;100220.72;;;10.81;48.95
21803;BME280;18591;47.080;22.214;2023-01-06T11:28:19;100201.53;;;10.95;48.40
21803;BME280;18591;47.080;22.214;2023-01-06T11:30:27;100203.28;;;10.96;47.39
21803;BME280;18591;47.080;22.214;2023-01-06T11:32:29;100206.84;;;10.97;48.31
21803;BME280;18591;47.080;22.214;2023-01-06T11:34:31;100201.44;;;10.98;47.55
21803;BME280;18591;47.080;22.214;2023-01-06T11:36:42;100195.97;;;11.01;45.84
21803;BME280;18591;47.080;22.214;2023-01-06T11:40:52;100186.88;;;11.05;48.09
21803;BME280;18591;47.080;22.214;2023-01-06T11:42:58;100178.72;;;11.08;47.78
21803;BME280;18591;47.080;22.214;2023-01-06T11:45:03;100185.91;;;11.08;47.69
21803;BME280;18591;47.080;22.214;2023-01-06T11:47:26;100183.31;;;11.05;45.89
21803;BME280;18591;47.080;22.214;2023-01-06T11:49:41;100193.00;;;11.10;47.66
21803;BME280;18591;47.080;22.214;2023-01-06T11:51:47;100185.84;;;11.09;46.85
21803;BME280;18591;47.080;22.214;2023-01-06T11:53:55;100187.56;;;11.12;46.71
21803;BME280;18591;47.080;22.214;2023-01-06T11:56:01;100186.59;;;11.15;47.08
21803;BME280;18591;47.080;22.214;2023-01-06T11:58:12;100191.91;;;11.18;46.03
21803;BME280;18591;47.080;22.214;2023-01-06T12:00:58;100184.59;;;11.21;46.35
21803;BME280;18591;47.080;22.214;2023-01-06T12:03:31;100185.38;;;11.25;45.59
21803;BME280;18591;47.080;22.214;2023-01-06T12:07:50;100188.03;;;11.26;45.03
21803;BME280;18591;47.080;22.214;2023-01-06T12:09:58;100186.47;;;11.19;46.20
21803;BME280;18591;47.080;22.214;2023-01-06T12:12:05;100182.91;;;11.19;46.85
21803;BME280;18591;47.080;22.214;2023-01-06T12:14:14;100180.09;;;11.22;46.07
21803;BME280;18591;47.080;22.214;2023-01-06T12:16:39;100181.78;;;11.26;45.72